Time;durP1;ratioP1;P1;durP2;ratioP2;P2;SDS_P1;SDS_P2;PMS_P1;PMS_P2;Temp;Humidity;BMP_temperature;BMP_pressure;BME280_temperature;BME280_humidity;BME280_pressure;Samples;Min_cycle;Max_cycle;Signal;HPM_P1;HPM_P2
2023/12/29 00:01:47;;;;;;;8.17;3.00;;;11.20;99.90;;;;;;5017843;28;20483;-86
2023/12/29 00:04:15;;;;;;;6.80;3.37;;;11.20;99.90;;;;;;5017527;28;20550;-86
2023/12/29 00:06:44;;;;;;;7.47;2.77;;;11.20;99.90;;;;;;5018038;28;20444;-85
2023/12/29 00:09:28;;;;;;;8.97;2.90;;;11.20;99.90;;;;;;5018662;28;20881;-85
2023/12/29 00:11:56;;;;;;;7.63;2.03;;;11.20;99.90;;;;;;5018158;28;20490;-85
2023/12/29 00:14:26;;;;;;;6.10;3.00;;;11.20;99.90;;;;;;5016767;28;20455;-85
2023/12/29 00:16:57;;;;;;;6.37;2.77;;;11.20;99.90;;;;;;5016867;28;20475;-85
2023/12/29 00:19:25;;;;;;;7.87;3.07;;;11.20;99.90;;;;;;5016901;28;20478;-85
2023/12/29 00:21:54;;;;;;;5.10;2.77;;;11.20;99.90;;;;;;5016787;28;20456;-85
2023/12/29 00:24:22;;;;;;;8.43;2.90;;;11.20;99.90;;;;;;5016819;28;20848;-85
2023/12/29 00:26:52;;;;;;;10.23;3.30;;;11.20;99.90;;;;;;5016752;28;20552;-85
2023/12/29 00:29:20;;;;;;;10.50;3.10;;;11.20;99.90;;;;;;5016043;28;20673;-85
2023/12/29 00:31:49;;;;;;;12.00;3.80;;;11.20;99.90;;;;;;5017680;28;20455;-86
2023/12/29 00:34:17;;;;;;;5.53;2.80;;;11.20;99.90;;;;;;5017584;28;20825;-86
2023/12/29 00:36:46;;;;;;;10.20;3.30;;;11.20;99.90;;;;;;5019879;28;20861;-86
2023/12/29 00:39:14;;;;;;;8.33;3.17;;;11.20;99.90;;;;;;5017240;28;20474;-86
2023/12/29 00:41:43;;;;;;;5.20;2.73;;;11.20;99.90;;;;;;5017300;28;20458;-85
2023/12/29 00:44:13;;;;;;;7.23;2.80;;;11.20;99.90;;;;;;5022418;28;20480;-86
2023/12/29 00:46:42;;;;;;;5.87;3.10;;;11.10;99.90;;;;;;5025736;28;20531;-85
2023/12/29 00:49:10;;;;;;;4.70;2.60;;;11.10;99.90;;;;;;5019481;28;20448;-85
2023/12/29 00:51:41;;;;;;;8.57;2.97;;;11.10;99.90;;;;;;5020804;28;20868;-85
2023/12/29 00:54:09;;;;;;;9.03;2.93;;;11.10;99.90;;;;;;5024601;28;20486;-86
2023/12/29 00:56:38;;;;;;;7.43;2.40;;;11.10;99.90;;;;;;5024530;28;20479;-86
2023/12/29 00:59:06;;;;;;;8.67;3.00;;;11.10;99.90;;;;;;5035217;28;20451;-86
2023/12/29 01:01:36;;;;;;;6.33;2.50;;;11.10;99.90;;;;;;5037934;28;20424;-86
2023/12/29 01:04:05;;;;;;;8.67;3.23;;;11.10;99.90;;;;;;5037014;28;20467;-86
2023/12/29 01:06:34;;;;;;;8.63;2.77;;;11.10;99.90;;;;;;5036630;28;20444;-86
2023/12/29 01:09:03;;;;;;;5.73;2.50;;;11.10;99.90;;;;;;5035225;28;20563;-86
2023/12/29 01:11:31;;;;;;;7.03;2.73;;;11.10;99.90;;;;;;5034576;28;20546;-86
2023/12/29 01:13:59;;;;;;;6.93;3.03;;;11.10;99.90;;;;;;5034993;28;20480;-86
2023/12/29 01:16:28;;;;;;;5.97;2.93;;;11.00;99.90;;;;;;5035237;28;20455;-86
2023/12/29 01:18:58;;;;;;;8.23;3.13;;;11.10;99.90;;;;;;5035309;28;20479;-86
2023/12/29 01:21:26;;;;;;;7.20;3.47;;;11.00;99.90;;;;;;5034348;28;20442;-86
2023/12/29 01:23:56;;;;;;;4.77;2.30;;;11.00;99.90;;;;;;5034343;28;20464;-87
2023/12/29 01:26:24;;;;;;;7.47;2.60;;;11.00;99.90;;;;;;5032754;28;20436;-87
2023/12/29 01:28:53;;;;;;;7.47;3.43;;;11.00;99.90;;;;;;5018679;28;20494;-86
2023/12/29 01:31:21;;;;;;;7.00;2.70;;;11.00;99.90;;;;;;5016716;28;20456;-86
2023/12/29 01:33:49;;;;;;;7.07;3.00;;;10.90;99.90;;;;;;5016136;28;20475;-86
2023/12/29 01:36:20;;;;;;;7.17;3.00;;;11.00;99.90;;;;;;5015550;28;20448;-86
2023/12/29 01:38:53;;;;;;;5.30;2.30;;;10.90;99.90;;;;;;5015471;28;20941;-86
2023/12/29 01:41:21;;;;;;;5.50;2.37;;;10.90;99.90;;;;;;5015563;28;20467;-86
2023/12/29 01:44:22;;;;;;;5.33;2.43;;;10.90;99.90;;;;;;5015049;28;20518;-86
2023/12/29 01:46:52;;;;;;;5.37;2.77;;;10.90;99.90;;;;;;5015126;28;20452;-87
2023/12/29 01:49:21;;;;;;;9.33;3.43;;;10.90;99.90;;;;;;5015291;28;20448;-87
2023/12/29 01:51:54;;;;;;;8.00;2.83;;;10.80;99.90;;;;;;5014125;28;20945;-90
2023/12/29 01:54:26;;;;;;;5.77;3.13;;;10.70;99.90;;;;;;5013737;28;20472;-88
2023/12/29 01:56:57;;;;;;;6.10;2.60;;;10.60;99.90;;;;;;5013925;28;20454;-88
2023/12/29 01:59:27;;;;;;;5.03;2.60;;;10.60;99.90;;;;;;5013886;28;20447;-88
2023/12/29 02:01:56;;;;;;;6.43;2.73;;;10.50;99.90;;;;;;5013716;28;21024;-87
2023/12/29 02:04:26;;;;;;;4.50;2.43;;;10.50;99.90;;;;;;5013657;28;20484;-87
2023/12/29 02:06:56;;;;;;;5.97;2.70;;;10.40;99.90;;;;;;5013289;28;20451;-87
2023/12/29 02:09:26;;;;;;;5.00;2.60;;;10.40;99.90;;;;;;5015066;28;20479;-87
2023/12/29 02:11:56;;;;;;;7.23;3.43;;;10.40;99.90;;;;;;5016389;28;20447;-86
2023/12/29 02:14:25;;;;;;;12.07;4.00;;;10.40;99.90;;;;;;5015858;28;20944;-88
2023/12/29 02:17:00;;;;;;;4.70;3.10;;;10.30;99.90;;;;;;5015710;28;20957;-87
2023/12/29 02:19:40;;;;;;;6.20;3.50;;;10.30;99.90;;;;;;5015439;28;20464;-88
2023/12/29 02:22:12;;;;;;;6.63;3.00;;;10.30;99.90;;;;;;5014731;28;20447;-88
2023/12/29 02:24:41;;;;;;;5.20;3.20;;;10.30;99.90;;;;;;5016374;28;20519;-88
2023/12/29 02:27:24;;;;;;;6.17;3.53;;;10.30;99.90;;;;;;5014973;28;20490;-88
2023/12/29 02:30:04;;;;;;;10.90;4.07;;;10.20;99.90;;;;;;5014861;28;20444;-88
2023/12/29 02:32:34;;;;;;;8.63;3.80;;;10.20;99.90;;;;;;5014571;28;20468;-88
2023/12/29 02:35:07;;;;;;;6.73;3.43;;;10.20;99.90;;;;;;5014521;28;20459;-88
2023/12/29 02:37:37;;;;;;;8.23;3.73;;;10.20;99.90;;;;;;5016053;28;20424;-88
2023/12/29 02:40:06;;;;;;;9.03;3.80;;;10.20;99.90;;;;;;5014638;28;20981;-88
2023/12/29 02:42:36;;;;;;;7.17;3.37;;;10.20;99.90;;;;;;5014328;28;20518;-88
2023/12/29 02:45:05;;;;;;;8.17;3.87;;;10.10;99.90;;;;;;5014780;28;20456;-88
2023/12/29 02:47:34;;;;;;;6.77;3.53;;;10.10;99.90;;;;;;5014012;28;20448;-88
2023/12/29 02:50:02;;;;;;;5.50;2.60;;;10.10;99.90;;;;;;5014272;28;20453;-88
2023/12/29 02:52:31;;;;;;;9.33;3.77;;;10.10;99.90;;;;;;5013436;28;20475;-88
2023/12/29 02:54:59;;;;;;;7.93;4.10;;;10.10;99.90;;;;;;5013852;28;20470;-88
2023/12/29 02:57:27;;;;;;;9.50;4.07;;;10.10;99.90;;;;;;5013788;28;20972;-88
2023/12/29 02:59:57;;;;;;;5.00;3.17;;;10.10;99.90;;;;;;5013242;28;20957;-88
2023/12/29 03:02:26;;;;;;;6.33;3.83;;;10.10;99.90;;;;;;5013514;28;20566;-88
2023/12/29 03:04:54;;;;;;;7.57;4.10;;;10.10;99.90;;;;;;5013660;28;20486;-88
2023/12/29 03:07:23;;;;;;;9.00;4.20;;;10.00;99.90;;;;;;5013646;28;20474;-89
2023/12/29 03:09:51;;;;;;;7.37;3.63;;;10.00;99.90;;;;;;5013228;28;20464;-88
2023/12/29 03:12:19;;;;;;;9.30;3.93;;;10.00;99.90;;;;;;5013276;28;20518;-88
2023/12/29 03:14:48;;;;;;;8.43;3.50;;;10.00;99.90;;;;;;5013138;28;20455;-88
2023/12/29 03:17:17;;;;;;;5.67;3.47;;;10.00;99.90;;;;;;5014167;28;20479;-88
2023/12/29 03:19:46;;;;;;;7.43;4.07;;;10.00;99.90;;;;;;5017100;28;20459;-88
2023/12/29 03:22:14;;;;;;;7.30;3.93;;;10.00;99.90;;;;;;5017764;28;21000;-90
2023/12/29 03:24:43;;;;;;;7.03;3.60;;;10.00;99.90;;;;;;5020069;28;20492;-89
2023/12/29 03:27:12;;;;;;;9.20;4.70;;;9.90;99.90;;;;;;5019340;28;20506;-92
2023/12/29 03:29:41;;;;;;;8.80;3.87;;;9.90;99.90;;;;;;5017318;28;20452;-93
2023/12/29 03:32:10;;;;;;;7.97;3.60;;;9.90;99.90;;;;;;5016511;28;20451;-91
2023/12/29 03:34:40;;;;;;;9.90;4.63;;;10.00;99.90;;;;;;5018427;28;20448;-90
2023/12/29 03:37:11;;;;;;;6.63;3.83;;;9.90;99.90;;;;;;5017902;28;20439;-92
2023/12/29 03:39:41;;;;;;;7.37;4.27;;;9.90;99.90;;;;;;5018339;28;20459;-91
2023/12/29 03:42:09;;;;;;;10.27;3.90;;;9.90;99.90;;;;;;5017734;28;20498;-88
2023/12/29 03:44:38;;;;;;;6.60;4.23;;;9.90;99.90;;;;;;5017792;28;20458;-88
2023/12/29 03:47:07;;;;;;;6.60;3.67;;;9.90;99.90;;;;;;5017830;28;20558;-88
2023/12/29 03:49:35;;;;;;;8.10;3.90;;;10.00;99.90;;;;;;5017953;28;20456;-88
2023/12/29 03:52:05;;;;;;;9.80;3.63;;;10.00;99.90;;;;;;5017546;28;20586;-88
2023/12/29 03:54:34;;;;;;;4.43;1.90;;;10.00;99.90;;;;;;5017826;28;20452;-87
2023/12/29 03:57:02;;;;;;;4.87;1.70;;;10.00;99.90;;;;;;5017298;28;20456;-88
2023/12/29 03:59:30;;;;;;;2.10;1.37;;;9.90;99.90;;;;;;5017287;28;20451;-89
2023/12/29 04:01:59;;;;;;;2.90;1.57;;;9.70;99.90;;;;;;5018700;28;20984;-89
2023/12/29 04:04:27;;;;;;;3.67;1.70;;;9.50;99.90;;;;;;5017318;28;20448;-88
2023/12/29 04:06:56;;;;;;;3.33;1.80;;;9.30;99.90;;;;;;5018178;28;20871;-89
2023/12/29 04:09:26;;;;;;;6.03;2.00;;;9.20;99.90;;;;;;5017354;28;20483;-88
2023/12/29 04:11:54;;;;;;;5.97;2.70;;;9.10;99.90;;;;;;5017819;28;20452;-88
2023/12/29 04:14:22;;;;;;;8.73;3.10;;;9.00;99.90;;;;;;5017385;28;20464;-89
2023/12/29 04:16:51;;;;;;;5.87;3.00;;;9.00;99.90;;;;;;5017268;28;20455;-88
2023/12/29 04:19:19;;;;;;;7.80;3.30;;;9.00;99.90;;;;;;5017278;28;20498;-88
2023/12/29 04:21:48;;;;;;;8.57;3.87;;;9.00;99.90;;;;;;5017804;28;20820;-88
2023/12/29 04:24:17;;;;;;;8.97;3.53;;;9.10;99.90;;;;;;5017415;28;20475;-88
2023/12/29 04:26:46;;;;;;;7.67;3.70;;;9.30;99.90;;;;;;5016919;28;20448;-88
2023/12/29 04:29:15;;;;;;;5.37;3.50;;;9.40;99.90;;;;;;5018670;28;20436;-88
2023/12/29 04:31:43;;;;;;;7.67;3.87;;;9.50;99.90;;;;;;5017842;28;20468;-87
2023/12/29 04:34:14;;;;;;;7.37;3.60;;;9.60;99.90;;;;;;5017259;28;20476;-88
2023/12/29 04:36:43;;;;;;;4.63;2.70;;;9.70;99.90;;;;;;5017493;28;20452;-87
2023/12/29 04:39:11;;;;;;;9.37;3.30;;;9.80;99.90;;;;;;5017367;28;20456;-88
2023/12/29 04:41:39;;;;;;;5.40;2.90;;;9.90;99.90;;;;;;5016650;28;20507;-87
2023/12/29 04:44:09;;;;;;;5.00;2.63;;;9.90;99.90;;;;;;5016710;28;20838;-87
2023/12/29 04:46:38;;;;;;;5.53;2.40;;;10.00;99.90;;;;;;5016841;28;20455;-87
2023/12/29 04:49:06;;;;;;;6.17;2.77;;;10.00;99.90;;;;;;5017219;28;20439;-87
2023/12/29 04:51:35;;;;;;;6.80;3.20;;;10.10;99.90;;;;;;5016108;28;20456;-87
2023/12/29 04:54:03;;;;;;;7.27;2.80;;;10.10;99.90;;;;;;5016004;28;20475;-87
2023/12/29 04:56:31;;;;;;;6.27;3.60;;;10.10;99.90;;;;;;5015882;28;20961;-87
2023/12/29 04:59:00;;;;;;;5.70;2.90;;;10.20;99.90;;;;;;5015472;28;20479;-87
2023/12/29 05:01:29;;;;;;;7.67;3.17;;;10.20;99.90;;;;;;5015221;28;20538;-87
2023/12/29 05:03:58;;;;;;;7.67;3.60;;;10.20;99.90;;;;;;5015661;28;20472;-87
2023/12/29 05:06:26;;;;;;;5.73;3.00;;;10.20;99.90;;;;;;5015324;28;20502;-87
2023/12/29 05:08:54;;;;;;;8.67;3.57;;;10.20;99.90;;;;;;5015070;28;20448;-87
2023/12/29 05:11:23;;;;;;;8.47;3.20;;;10.20;99.90;;;;;;5014924;28;20502;-87
2023/12/29 05:13:51;;;;;;;6.73;3.10;;;10.30;99.90;;;;;;5014890;28;20463;-87
2023/12/29 05:16:19;;;;;;;8.50;3.53;;;10.20;99.90;;;;;;5014607;28;20447;-87
2023/12/29 05:18:49;;;;;;;6.90;3.30;;;10.30;99.90;;;;;;5015813;28;20443;-88
2023/12/29 05:21:18;;;;;;;5.60;2.73;;;10.20;99.90;;;;;;5022011;28;20451;-87
2023/12/29 05:23:47;;;;;;;6.73;3.00;;;10.20;99.90;;;;;;5020289;28;20471;-87
2023/12/29 05:26:16;;;;;;;6.37;3.37;;;10.20;99.90;;;;;;5016866;28;20458;-87
2023/12/29 05:28:44;;;;;;;5.67;3.57;;;10.20;99.90;;;;;;5016548;28;20795;-87
2023/12/29 05:31:13;;;;;;;8.57;3.63;;;10.20;99.90;;;;;;5015243;28;20827;-87
2023/12/29 05:33:41;;;;;;;8.40;3.40;;;10.20;99.90;;;;;;5015269;28;20521;-87
2023/12/29 05:36:12;;;;;;;5.20;2.80;;;10.20;99.90;;;;;;5015457;28;20506;-87
2023/12/29 05:38:41;;;;;;;7.23;3.40;;;10.30;99.90;;;;;;5015040;28;20853;-87
2023/12/29 05:41:13;;;;;;;6.67;2.73;;;10.20;99.90;;;;;;5015965;28;20535;-87
2023/12/29 05:43:42;;;;;;;11.30;3.67;;;10.20;99.90;;;;;;5015045;28;20468;-87
2023/12/29 05:46:11;;;;;;;10.20;4.00;;;10.20;99.90;;;;;;5015303;28;20560;-87
2023/12/29 05:48:40;;;;;;;7.40;3.70;;;10.20;99.90;;;;;;5014888;28;20454;-87
2023/12/29 05:51:11;;;;;;;8.23;3.60;;;10.20;99.90;;;;;;5014587;28;20463;-87
2023/12/29 05:53:41;;;;;;;10.50;4.13;;;10.20;99.90;;;;;;5014813;28;20478;-87
2023/12/29 05:56:12;;;;;;;7.47;3.43;;;10.20;99.90;;;;;;5014339;28;20467;-87
2023/12/29 05:58:42;;;;;;;6.60;3.03;;;10.20;99.90;;;;;;5014376;28;20539;-87
2023/12/29 06:01:11;;;;;;;7.43;3.40;;;10.20;99.90;;;;;;5014234;28;20542;-87
2023/12/29 06:03:39;;;;;;;9.80;3.77;;;10.20;99.90;;;;;;5015886;28;20537;-87
2023/12/29 06:06:08;;;;;;;7.17;3.37;;;10.20;99.90;;;;;;5014639;28;20456;-87
2023/12/29 06:08:38;;;;;;;9.17;3.90;;;10.20;99.90;;;;;;5015722;28;20867;-87
2023/12/29 06:11:06;;;;;;;9.70;3.50;;;10.20;99.90;;;;;;5014200;28;20447;-87
2023/12/29 06:13:34;;;;;;;9.33;3.33;;;10.20;99.90;;;;;;5014212;28;20503;-87
2023/12/29 06:16:03;;;;;;;6.43;3.30;;;10.20;99.90;;;;;;5014086;28;20510;-87
2023/12/29 06:18:32;;;;;;;8.30;3.50;;;10.20;99.90;;;;;;5014107;28;20456;-87
2023/12/29 06:21:02;;;;;;;9.43;3.73;;;10.20;99.90;;;;;;5014412;28;20976;-87
2023/12/29 06:23:31;;;;;;;7.73;3.10;;;10.20;99.90;;;;;;5015166;28;20875;-87
2023/12/29 06:26:01;;;;;;;8.73;3.90;;;10.20;99.90;;;;;;5014245;28;20940;-87
2023/12/29 06:28:29;;;;;;;8.03;3.43;;;10.20;99.90;;;;;;5014024;28;20456;-87
2023/12/29 06:30:58;;;;;;;10.03;3.37;;;10.20;99.90;;;;;;5014312;28;20447;-87
2023/12/29 06:33:26;;;;;;;13.30;4.10;;;10.20;99.90;;;;;;5014239;28;20518;-87
2023/12/29 06:35:55;;;;;;;9.80;3.23;;;10.20;99.90;;;;;;5013895;28;20809;-86
2023/12/29 06:38:23;;;;;;;10.30;3.60;;;10.20;99.90;;;;;;5014018;28;20945;-86
2023/12/29 06:40:51;;;;;;;11.50;3.90;;;10.20;99.90;;;;;;5014017;28;20850;-87
2023/12/29 06:43:21;;;;;;;9.00;3.80;;;10.20;99.90;;;;;;5015333;28;20480;-86
2023/12/29 06:45:50;;;;;;;12.50;4.40;;;10.20;99.90;;;;;;5015264;28;20451;-86
2023/12/29 06:48:18;;;;;;;7.07;3.60;;;10.20;99.90;;;;;;5013646;28;20980;-87
2023/12/29 06:50:48;;;;;;;9.47;3.50;;;10.10;99.90;;;;;;5013460;28;20948;-87
2023/12/29 06:53:17;;;;;;;10.27;3.53;;;10.20;99.90;;;;;;5014944;28;20832;-87
2023/12/29 06:55:45;;;;;;;9.83;3.37;;;10.10;99.90;;;;;;5017539;28;20487;-87
2023/12/29 06:58:13;;;;;;;13.20;4.50;;;10.20;99.90;;;;;;5017957;28;20534;-87
2023/12/29 07:00:43;;;;;;;7.03;2.70;;;10.20;99.90;;;;;;5017722;28;20452;-87
2023/12/29 07:03:15;;;;;;;11.50;3.53;;;10.20;99.90;;;;;;5017307;28;21000;-86
2023/12/29 07:05:43;;;;;;;10.37;3.33;;;10.20;99.90;;;;;;5017500;28;20476;-86
2023/12/29 07:08:14;;;;;;;9.83;3.87;;;10.20;99.90;;;;;;5017000;28;20492;-86
2023/12/29 07:10:43;;;;;;;9.33;3.00;;;10.20;99.90;;;;;;5016092;28;20455;-87
2023/12/29 07:13:11;;;;;;;7.90;3.23;;;10.10;99.90;;;;;;5015794;28;21039;-86
2023/12/29 07:15:40;;;;;;;9.40;3.00;;;10.10;99.90;;;;;;5016099;28;20454;-87
2023/12/29 07:18:10;;;;;;;10.37;4.07;;;10.20;99.90;;;;;;5015832;28;20456;-86
2023/12/29 07:20:38;;;;;;;12.57;4.40;;;10.20;99.90;;;;;;5015729;28;20957;-86
2023/12/29 07:23:06;;;;;;;12.90;4.63;;;10.10;99.90;;;;;;5016791;28;20487;-86
2023/12/29 07:25:35;;;;;;;6.13;2.90;;;10.10;99.90;;;;;;5015908;28;20443;-86
2023/12/29 07:28:03;;;;;;;12.90;4.30;;;10.10;99.90;;;;;;5015540;28;20460;-86
2023/12/29 07:30:32;;;;;;;10.43;3.40;;;10.10;99.90;;;;;;5014991;28;20444;-86
2023/12/29 07:33:02;;;;;;;13.23;4.10;;;10.10;99.90;;;;;;5014791;28;20475;-86
2023/12/29 07:35:32;;;;;;;13.97;3.90;;;10.10;99.90;;;;;;5014837;28;20448;-86
2023/12/29 07:38:01;;;;;;;11.30;3.73;;;10.10;99.90;;;;;;5015893;28;20924;-86
2023/12/29 07:40:30;;;;;;;9.47;4.13;;;10.10;99.90;;;;;;5014595;28;20452;-86
2023/12/29 07:42:58;;;;;;;12.80;5.03;;;10.10;99.90;;;;;;5014442;28;20553;-86
2023/12/29 07:45:26;;;;;;;9.40;4.03;;;10.10;99.90;;;;;;5014524;28;21031;-86
2023/12/29 07:47:55;;;;;;;9.90;4.10;;;10.10;99.90;;;;;;5015699;28;20462;-86
2023/12/29 07:50:23;;;;;;;14.90;4.90;;;10.10;99.90;;;;;;5014625;28;20554;-86
2023/12/29 07:52:53;;;;;;;13.27;4.00;;;10.10;99.90;;;;;;5015219;28;21068;-86
2023/12/29 07:55:21;;;;;;;9.10;3.77;;;10.10;99.90;;;;;;5015185;28;20505;-86
2023/12/29 07:57:50;;;;;;;10.70;4.37;;;10.10;99.90;;;;;;5014996;28;20487;-86
2023/12/29 08:00:19;;;;;;;10.63;4.07;;;10.10;99.90;;;;;;5015289;28;20510;-86
2023/12/29 08:02:47;;;;;;;10.60;3.70;;;10.10;99.90;;;;;;5014878;28;20859;-86
2023/12/29 08:05:16;;;;;;;6.77;3.13;;;10.10;99.90;;;;;;5014800;28;20452;-86
2023/12/29 08:07:45;;;;;;;9.10;3.13;;;10.00;99.90;;;;;;4973844;28;1220034;-86
2023/12/29 08:10:14;;;;;;;12.80;3.47;;;10.00;99.90;;;;;;5015979;28;20922;-86
2023/12/29 08:12:43;;;;;;;8.40;3.33;;;10.00;99.90;;;;;;5017547;28;20463;-85
2023/12/29 08:15:12;;;;;;;14.57;5.67;;;10.00;99.90;;;;;;5015850;28;20448;-86
2023/12/29 08:17:40;;;;;;;9.40;3.90;;;10.00;99.90;;;;;;5016115;28;20483;-86
2023/12/29 08:20:10;;;;;;;15.50;4.50;;;10.00;99.90;;;;;;5015748;28;20459;-86
2023/12/29 08:22:38;;;;;;;20.97;5.17;;;10.00;99.90;;;;;;5015468;28;20495;-86
2023/12/29 08:25:07;;;;;;;11.60;4.80;;;10.00;99.90;;;;;;5015499;28;20447;-86
2023/12/29 08:27:36;;;;;;;14.00;4.50;;;10.00;99.90;;;;;;5016467;28;20505;-86
2023/12/29 08:30:06;;;;;;;15.87;4.73;;;10.00;99.90;;;;;;5015364;28;20881;-86
2023/12/29 08:32:34;;;;;;;13.00;4.33;;;10.00;99.90;;;;;;5015200;28;20570;-85
2023/12/29 08:35:03;;;;;;;8.07;3.80;;;9.90;99.90;;;;;;5015086;28;20979;-86
2023/12/29 08:37:33;;;;;;;11.97;4.73;;;9.90;99.90;;;;;;5018786;28;20456;-86
2023/12/29 08:40:01;;;;;;;11.90;4.53;;;9.90;99.90;;;;;;5019033;28;20479;-86
2023/12/29 08:42:30;;;;;;;12.87;4.30;;;9.90;99.90;;;;;;5018322;28;20480;-87
2023/12/29 08:45:00;;;;;;;8.03;3.07;;;9.90;99.90;;;;;;5018572;28;20472;-87
2023/12/29 08:47:28;;;;;;;8.20;2.97;;;9.90;99.90;;;;;;5017917;28;20803;-87
2023/12/29 08:49:57;;;;;;;5.20;1.93;;;9.80;99.90;;;;;;5017929;28;20502;-87
2023/12/29 08:52:25;;;;;;;7.20;2.27;;;9.70;99.90;;;;;;5016842;28;20503;-88
2023/12/29 08:54:53;;;;;;;5.63;2.77;;;9.60;99.90;;;;;;5017696;28;20505;-88
2023/12/29 08:57:22;;;;;;;8.60;2.00;;;9.50;99.90;;;;;;5016285;28;20494;-88
2023/12/29 08:59:51;;;;;;;6.57;2.80;;;9.20;99.90;;;;;;5014827;28;20447;-88
2023/12/29 09:02:20;;;;;;;6.90;2.20;;;9.30;99.90;;;;;;5014713;28;20458;-89
2023/12/29 09:04:49;;;;;;;6.30;2.57;;;9.20;99.90;;;;;;5014775;28;20508;-88
2023/12/29 09:07:17;;;;;;;6.47;2.60;;;9.20;99.90;;;;;;5014849;28;20466;-88
2023/12/29 09:09:46;;;;;;;7.00;2.53;;;9.10;99.90;;;;;;5014597;28;20550;-88
2023/12/29 09:12:14;;;;;;;6.97;3.20;;;9.10;99.90;;;;;;5014110;28;20448;-88
2023/12/29 09:14:43;;;;;;;8.07;2.67;;;9.10;99.90;;;;;;5014349;28;20474;-88
2023/12/29 09:17:11;;;;;;;6.20;3.10;;;9.10;99.90;;;;;;5013588;28;20486;-88
2023/12/29 09:19:41;;;;;;;6.10;2.90;;;9.10;99.90;;;;;;5014809;28;20554;-88
2023/12/29 09:22:11;;;;;;;7.87;2.77;;;9.00;99.90;;;;;;5015644;28;20440;-88
2023/12/29 09:24:40;;;;;;;7.67;3.50;;;9.00;99.90;;;;;;5015523;28;20518;-88
2023/12/29 09:27:08;;;;;;;6.70;2.87;;;9.00;99.90;;;;;;5018070;28;20510;-88
2023/12/29 09:29:38;;;;;;;7.57;3.40;;;9.00;99.90;;;;;;5016733;28;20462;-88
2023/12/29 09:32:07;;;;;;;5.63;2.60;;;9.00;99.90;;;;;;5018036;28;20452;-88
2023/12/29 09:34:35;;;;;;;11.00;3.67;;;9.00;99.90;;;;;;5017896;28;20452;-88
2023/12/29 09:37:05;;;;;;;7.00;2.50;;;9.00;99.90;;;;;;5017947;28;20460;-88
2023/12/29 09:39:33;;;;;;;7.20;2.07;;;9.00;99.90;;;;;;5018897;28;20432;-88
2023/12/29 09:42:04;;;;;;;5.00;2.60;;;9.00;99.90;;;;;;5018396;28;20444;-88
2023/12/29 09:44:34;;;;;;;7.23;2.43;;;9.00;99.90;;;;;;5017471;28;20472;-88
2023/12/29 09:47:05;;;;;;;6.40;2.50;;;9.00;99.90;;;;;;5018759;28;20447;-88
2023/12/29 09:49:39;;;;;;;8.73;3.70;;;9.00;99.90;;;;;;5018443;28;20498;-88
2023/12/29 09:52:13;;;;;;;8.90;4.20;;;9.10;99.90;;;;;;5027659;28;20439;-88
2023/12/29 09:54:42;;;;;;;11.70;4.00;;;9.10;99.90;;;;;;5038256;28;20420;-89
2023/12/29 09:57:11;;;;;;;10.90;3.50;;;9.10;99.90;;;;;;5038598;28;20448;-88
2023/12/29 09:59:41;;;;;;;9.53;4.43;;;9.20;99.90;;;;;;5037166;28;20427;-88
2023/12/29 10:02:15;;;;;;;8.20;3.33;;;9.20;99.90;;;;;;5022382;28;20767;-87
2023/12/29 10:04:44;;;;;;;9.57;4.10;;;9.20;99.90;;;;;;5015079;28;20474;-88
2023/12/29 10:07:21;;;;;;;10.93;3.70;;;9.30;99.90;;;;;;5014906;28;20498;-88
2023/12/29 10:09:53;;;;;;;11.77;4.00;;;9.30;99.90;;;;;;5016210;28;20443;-88
2023/12/29 10:12:22;;;;;;;10.43;3.93;;;9.30;99.90;;;;;;5014925;28;20444;-88
2023/12/29 10:15:02;;;;;;;7.43;3.77;;;9.30;99.90;;;;;;5014646;28;20450;-88
2023/12/29 10:17:42;;;;;;;6.60;3.50;;;9.30;99.90;;;;;;5015207;28;20464;-88
2023/12/29 10:20:21;;;;;;;7.37;3.23;;;9.40;99.90;;;;;;5014233;28;20447;-88
2023/12/29 10:22:59;;;;;;;5.70;2.20;;;9.30;99.90;;;;;;5013596;28;20479;-88
2023/12/29 10:25:30;;;;;;;4.07;2.07;;;9.30;99.90;;;;;;5014292;28;20550;-87
2023/12/29 10:27:59;;;;;;;4.73;2.00;;;9.20;99.90;;;;;;5014834;28;20435;-88
2023/12/29 10:30:28;;;;;;;5.17;1.80;;;9.10;99.90;;;;;;5013697;28;20448;-88
2023/12/29 10:33:03;;;;;;;6.00;2.30;;;9.10;99.90;;;;;;5013350;28;20533;-89
2023/12/29 10:35:34;;;;;;;5.20;2.43;;;9.00;99.90;;;;;;5013198;28;20811;-89
2023/12/29 10:38:12;;;;;;;5.70;2.03;;;8.90;99.90;;;;;;5013317;28;20490;-88
2023/12/29 10:40:42;;;;;;;5.00;2.20;;;8.90;99.90;;;;;;5013245;28;20452;-88
2023/12/29 10:43:11;;;;;;;3.77;1.80;;;8.80;99.90;;;;;;5013162;28;20993;-89
2023/12/29 10:45:39;;;;;;;5.40;2.57;;;8.70;99.90;;;;;;5013325;28;20475;-89
2023/12/29 10:48:08;;;;;;;5.27;1.90;;;8.70;99.90;;;;;;5015968;28;20479;-89
2023/12/29 10:50:46;;;;;;;9.73;2.73;;;8.70;99.90;;;;;;5016312;28;20553;-89
2023/12/29 10:53:17;;;;;;;6.23;2.63;;;8.60;99.90;;;;;;5013943;28;20890;-88
2023/12/29 10:55:46;;;;;;;5.60;2.67;;;8.60;99.90;;;;;;5013924;28;20826;-89
2023/12/29 10:58:17;;;;;;;5.23;2.70;;;8.60;99.90;;;;;;5014196;28;20455;-89
2023/12/29 11:00:46;;;;;;;4.17;2.47;;;8.60;99.90;;;;;;5014387;28;20926;-88
2023/12/29 11:03:16;;;;;;;5.13;3.03;;;8.60;99.90;;;;;;5016378;28;20470;-89
2023/12/29 11:05:44;;;;;;;6.00;3.17;;;8.50;99.90;;;;;;5016009;28;20480;-89
2023/12/29 11:08:18;;;;;;;7.00;2.73;;;8.50;99.90;;;;;;5014766;28;20470;-89
2023/12/29 11:10:49;;;;;;;5.03;2.50;;;8.50;99.90;;;;;;5013592;28;20922;-89
2023/12/29 11:13:17;;;;;;;8.73;3.20;;;8.60;99.90;;;;;;5012548;28;20472;-89
2023/12/29 11:15:48;;;;;;;9.67;3.47;;;8.60;99.90;;;;;;5014197;28;20484;-89
2023/12/29 11:18:18;;;;;;;5.53;3.30;;;8.60;99.90;;;;;;5014554;28;20452;-89
2023/12/29 11:20:47;;;;;;;8.77;4.07;;;8.60;99.90;;;;;;5014109;28;20455;-89
2023/12/29 11:23:18;;;;;;;4.93;3.70;;;8.70;99.90;;;;;;5013796;28;20880;-89
2023/12/29 11:25:46;;;;;;;9.07;3.90;;;8.70;99.90;;;;;;5014612;28;20474;-89
2023/12/29 11:28:15;;;;;;;5.93;3.00;;;8.70;99.90;;;;;;5013844;28;21015;-89
2023/12/29 11:30:44;;;;;;;5.60;3.20;;;8.80;99.90;;;;;;5012817;28;20458;-89
2023/12/29 11:33:19;;;;;;;6.43;3.27;;;8.80;99.90;;;;;;5013261;28;20944;-89
2023/12/29 11:35:55;;;;;;;4.67;2.70;;;8.90;99.90;;;;;;5012438;28;20443;-89
2023/12/29 11:38:43;;;;;;;8.63;2.43;;;8.90;99.90;;;;;;5012433;28;20443;-89
2023/12/29 11:41:18;;;;;;;3.80;2.57;;;9.00;99.90;;;;;;5016058;28;20451;-89
2023/12/29 11:43:47;;;;;;;6.20;2.60;;;9.00;99.90;;;;;;5016064;28;20471;-89
2023/12/29 11:46:32;;;;;;;6.13;2.30;;;9.00;99.90;;;;;;5016333;28;20486;-88
2023/12/29 11:49:04;;;;;;;4.53;2.30;;;9.00;99.90;;;;;;5016266;28;20444;-89
2023/12/29 11:51:35;;;;;;;5.40;2.30;;;9.00;99.90;;;;;;5016192;28;20447;-89
2023/12/29 11:54:05;;;;;;;4.93;1.70;;;9.10;99.90;;;;;;5016275;28;20839;-89
2023/12/29 11:56:40;;;;;;;4.93;2.10;;;9.10;99.90;;;;;;5016480;28;20478;-89
2023/12/29 11:59:16;;;;;;;4.07;2.20;;;9.10;99.90;;;;;;5022761;28;20450;-89
2023/12/29 12:01:46;;;;;;;3.17;1.57;;;9.10;99.90;;;;;;5020974;28;20563;-89
2023/12/29 12:04:39;;;;;;;5.17;1.77;;;9.10;99.90;;;;;;5016313;28;20999;-89
2023/12/29 12:07:09;;;;;;;3.33;1.53;;;9.10;99.90;;;;;;5017133;28;20444;-88
2023/12/29 12:09:39;;;;;;;4.93;1.70;;;9.10;99.90;;;;;;5016143;28;20542;-89
2023/12/29 12:12:07;;;;;;;5.10;1.63;;;9.10;99.90;;;;;;5016610;28;20462;-88
2023/12/29 12:14:51;;;;;;;3.80;1.70;;;9.10;99.90;;;;;;5016984;28;20550;-89
2023/12/29 12:17:33;;;;;;;4.07;2.00;;;9.10;99.90;;;;;;5014393;28;20447;-88
2023/12/29 12:20:08;;;;;;;4.90;1.77;;;9.10;99.90;;;;;;5017322;28;20475;-88
2023/12/29 12:22:37;;;;;;;5.40;1.60;;;9.00;99.90;;;;;;5015772;28;20518;-88
2023/12/29 12:25:09;;;;;;;4.17;1.70;;;9.00;99.90;;;;;;5016195;28;20472;-88
2023/12/29 12:27:40;;;;;;;5.33;2.37;;;9.00;99.90;;;;;;5016102;28;20447;-88
2023/12/29 12:30:09;;;;;;;3.10;1.40;;;9.00;99.90;;;;;;5016492;28;20436;-88
2023/12/29 12:32:39;;;;;;;3.47;1.50;;;9.00;99.90;;;;;;5016528;28;20503;-88
2023/12/29 12:35:16;;;;;;;5.10;2.10;;;9.00;99.90;;;;;;5016169;28;20494;-88
2023/12/29 12:37:47;;;;;;;7.33;2.70;;;9.00;99.90;;;;;;5016289;28;20440;-88
2023/12/29 12:40:28;;;;;;;6.00;2.60;;;9.00;99.90;;;;;;5016288;28;20454;-88
2023/12/29 12:42:56;;;;;;;4.10;1.83;;;9.00;99.90;;;;;;5015601;28;21012;-88
2023/12/29 12:45:28;;;;;;;5.27;2.00;;;9.00;99.90;;;;;;5016188;28;20503;-88
2023/12/29 12:48:03;;;;;;;4.80;2.70;;;9.00;99.90;;;;;;5017852;28;20989;-88
2023/12/29 12:50:31;;;;;;;6.27;2.40;;;9.10;99.90;;;;;;5021792;28;20949;-88
2023/12/29 12:53:03;;;;;;;9.60;2.57;;;9.10;99.90;;;;;;5019842;28;20507;-88
2023/12/29 12:55:36;;;;;;;4.20;1.60;;;9.10;99.90;;;;;;5016111;28;20806;-88
2023/12/29 12:58:05;;;;;;;7.87;2.13;;;9.10;99.90;;;;;;5016075;28;20448;-88
2023/12/29 13:00:34;;;;;;;5.63;2.93;;;9.10;99.90;;;;;;5015945;28;20955;-87
2023/12/29 13:03:02;;;;;;;7.33;2.60;;;9.10;99.90;;;;;;5016742;28;20468;-88
2023/12/29 13:05:31;;;;;;;6.13;1.50;;;9.10;99.90;;;;;;5015962;28;20468;-88